KJWY

Mid-Way Regional Airport

Midlothian/Waxahachie, Texas, USA
METAR KJWY 140035Z AUTO 30009G15KT 10SM OVC013 09/07 A2976 RMK AO2 T00910070
Observed Flight Rules
Dec-14 @ 00:35 UTC (9 minutes ago) Marginal Visual Flight Rules
Wind Visibility Clouds
300° at 9 knots
 Gusting to 15 knots
10 miles
  • Overcast at 1,300' AGL
Temperatures Readings
Current 9°C / 48°F
Dewpoint 7°C / 45°F
Humidity 87%
Altimeter 29.76" Hg
Pressure 1008 hPa
Elevation 217
METAR KJWY 140035Z AUTO 30009G15KT 10SM OVC013 09/07 A2976 RMK AO2 T00910070
Observed Flight Rules
Dec-14 @ 00:35 UTC
(9 minutes ago)
MVFR
Wind Visibility
300° at 9 knots
 Gusting to 15 knots
10 miles
Clouds
  • Overcast at 1,300' AGL
Temperature Dewpoint
9°C / 48°F 7°C / 45°F
Humidity Altimeter Pressure
87% 29.76" Hg 1008 hPa